Latest Coastal Weather Observations for Sydney Harbour

IDN60701

Issued at 8:55 pm EST Wednesday 27 August 2014 (issued every 10 minutes, with the page automatically refreshed every 10 minutes)

About coastal observations | Map of coastal stations | Coastal observations for NSW | Marine services | Other Formats
Station Details ID: 066196 Name: WEDDING CAKE WEST Lat: -33.84 Lon: 151.26 Height: 6.0 m
Data from the previous 72 hours. | See also: Recent months for locations in New South Wales
Date/Time
EST
Temp

°C
Wind Pressure Rain
since 9am
mm
Weather Cloud Vis
km
Sea
Height
m
Swell
Dir
 
Speed
knots
Gust
knots
hPa Trend Height
m
Period
s
Dir
27/08:30pm 16.2 S 15 18 - - - - - - - - - -
27/08:00pm 16.4 S 17 22 - - - - - - - - - -
27/07:30pm 16.3 S 18 25 - - - - - - - - - -
27/07:00pm 16.4 S 22 27 - - - - - - - - - -
27/06:30pm 16.5 S 21 27 - - - - - - - - - -
27/06:00pm 16.4 SSE 18 24 - - - - - - - - - -
27/05:30pm 16.6 SSE 18 23 - - - - - - - - - -
27/05:00pm 16.8 S 19 25 - - - - - - - - - -
27/04:30pm 16.4 SSE 18 26 - - - - - - - - - -
27/04:00pm 16.6 SSE 19 25 - - - - - - - - - -
27/03:30pm 17.5 SSE 18 25 - - - - - - - - - -
27/03:00pm 17.7 SSE 17 25 - - - - - - - - - -
27/02:30pm 17.5 SSE 17 25 - - - - - - - - - -
27/02:00pm 17.8 SSE 17 26 - - - - - - - - - -
27/01:57pm 17.8 SSE 16 26 - - - - - - - - - -
27/01:30pm 17.9 SSE 18 25 - - - - - - - - - -
27/01:00pm 17.6 SSE 15 20 - - - - - - - - - -
27/12:30pm 17.5 SSE 17 22 - - - - - - - - - -
27/12:00pm 16.2 S 15 20 - - - - - - - - - -
27/11:30am 17.1 SSE 19 25 - - - - - - - - - -
27/11:00am 17.6 SSE 15 22 - - - - - - - - - -
27/10:30am 17.5 SSE 16 23 - - - - - - - - - -
27/10:00am 17.1 SSE 15 23 - - - - - - - - - -
27/09:30am 16.8 SSE 16 21 - - - - - - - - - -
27/09:03am 15.7 SSE 16 26 - - - - - - - - - -
27/09:00am 15.4 SE 18 27 - - - - - - - - - -
27/08:54am 15.5 SE 20 27 - - - - - - - - - -
27/08:30am 15.9 S 11 18 - - - - - - - - - -
27/08:00am 15.0 S 15 19 - - - - - - - - - -
27/07:30am 16.2 S 13 17 - - - - - - - - - -
27/07:00am 16.3 S 15 21 - - - - - - - - - -
27/06:30am 15.9 S 12 16 - - - - - - - - - -
27/06:06am 14.9 SSE 16 26 - - - - - - - - - -
27/06:00am 15.3 S 11 20 - - - - - - - - - -
27/05:30am 15.7 S 17 22 - - - - - - - - - -
27/05:00am 16.9 SSE 12 16 - - - - - - - - - -
27/04:30am 17.2 SE 14 17 - - - - - - - - - -
27/04:00am 17.1 SE 15 20 - - - - - - - - - -
27/03:30am 16.7 ESE 14 18 - - - - - - - - - -
27/03:00am 17.1 SE 14 17 - - - - - - - - - -
27/02:30am 17.2 SE 15 21 - - - - - - - - - -
27/02:00am 17.2 ESE 17 22 - - - - - - - - - -
27/01:30am 17.2 ESE 14 19 - - - - - - - - - -
27/01:00am 17.1 SE 15 20 - - - - - - - - - -
27/12:30am 17.2 SE 15 20 - - - - - - - - - -
27/12:00am 16.1 E 9 13 - - - - - - - - - -
 
Date/Time
EST
Temp

°C
Wind Pressure Rain
since 9am
mm
Weather Cloud Vis
km
Sea
Height
m
Swell
Dir
 
Speed
knots
Gust
knots
hPa Trend Height
m
Period
s
Dir
26/11:30pm 15.7 SE 13 17 - - - - - - - - - -
26/11:00pm 15.6 ESE 18 25 - - - - - - - - - -
26/10:30pm 16.0 SE 15 21 - - - - - - - - - -
26/10:00pm 16.2 ESE 19 25 - - - - - - - - - -
26/09:30pm 16.3 ESE 22 29 - - - - - - - - - -
26/09:00pm 16.7 ESE 20 27 - - - - - - - - - -
26/08:30pm 16.1 SE 18 24 - - - - - - - - - -
26/08:14pm 17.0 ESE 21 27 - - - - - - - - - -
26/08:00pm 16.5 SSE 16 26 - - - - - - - - - -
26/07:59pm 16.4 SSE 16 26 - - - - - - - - - -
26/07:49pm 16.7 SE 19 23 - - - - - - - - - -
26/07:30pm 15.6 SSE 6 8 - - - - - - - - - -
26/07:00pm 15.3 E 10 13 - - - - - - - - - -
26/06:30pm 15.9 SE 17 22 - - - - - - - - - -
26/06:00pm 15.7 ESE 17 22 - - - - - - - - - -
26/05:30pm 16.4 SE 17 22 - - - - - - - - - -
26/05:00pm 15.5 SSE 8 15 - - - - - - - - - -
26/04:30pm 14.7 WSW 12 14 - - - - - - - - - -
26/04:00pm 15.2 WSW 9 14 - - - - - - - - - -
26/03:30pm 15.1 SSW 6 7 - - - - - - - - - -
26/03:00pm 15.1 S 7 8 - - - - - - - - - -
26/02:30pm 14.8 S 10 13 - - - - - - - - - -
26/02:00pm 14.6 SSW 11 12 - - - - - - - - - -
26/01:30pm 14.3 SW 12 14 - - - - - - - - - -
26/01:00pm 14.3 SW 9 11 - - - - - - - - - -
26/12:30pm 14.1 S 11 17 - - - - - - - - - -
26/12:00pm 14.8 SW 5 7 - - - - - - - - - -
26/11:30am 14.4 SW 6 7 - - - - - - - - - -
26/11:00am 14.4 N 3 5 - - - - - - - - - -
26/10:30am 14.1 N 4 5 - - - - - - - - - -
26/10:00am 14.1 NNE 4 6 - - - - - - - - - -
26/09:30am 14.2 NNE 4 8 - - - - - - - - - -
26/09:00am 13.8 N 4 5 - - - - - - - - - -
26/08:30am 13.5 N 8 11 - - - - - - - - - -
26/08:00am 13.7 N 6 9 - - - - - - - - - -
26/07:30am 13.6 N 6 6 - - - - - - - - - -
26/07:00am 13.7 WSW 3 5 - - - - - - - - - -
26/06:30am 12.8 WSW 9 10 - - - - - - - - - -
26/06:00am 12.4 W 7 8 - - - - - - - - - -
26/05:30am 12.3 WSW 8 10 - - - - - - - - - -
26/05:00am 12.8 WSW 6 8 - - - - - - - - - -
26/04:30am 12.9 W 5 7 - - - - - - - - - -
26/04:00am 12.7 W 10 11 - - - - - - - - - -
26/03:30am 12.6 WSW 6 8 - - - - - - - - - -
26/03:00am 13.1 WSW 8 10 - - - - - - - - - -
26/02:30am 13.0 W 9 11 - - - - - - - - - -
26/02:00am 13.5 W 5 6 - - - - - - - - - -
26/01:30am 13.5 W 5 6 - - - - - - - - - -
26/01:00am 13.5 WSW 7 8 - - - - - - - - - -
26/12:30am 13.3 SSW 8 11 - - - - - - - - - -
26/12:00am 13.8 WSW 8 10 - - - - - - - - - -
 
Date/Time
EST
Temp

°C
Wind Pressure Rain
since 9am
mm
Weather Cloud Vis
km
Sea
Height
m
Swell
Dir
 
Speed
knots
Gust
knots
hPa Trend Height
m
Period
s
Dir
25/11:30pm 13.6 W 7 9 - - - - - - - - - -
25/11:00pm 13.4 W 5 6 - - - - - - - - - -
25/10:30pm 13.5 W 3 5 - - - - - - - - - -
25/10:00pm 13.5 WSW 5 6 - - - - - - - - - -
25/09:30pm 13.4 E 4 5 - - - - - - - - - -
25/09:00pm 13.5 E 8 10 - - - - - - - - - -
25/08:30pm 14.9 SE 13 17 - - - - - - - - - -
25/08:00pm 15.6 NE 4 5 - - - - - - - - - -
25/07:30pm 15.3 NE 4 5 - - - - - - - - - -
25/07:00pm 16.0 NE 4 5 - - - - - - - - - -
25/06:30pm 16.6 NE 8 9 - - - - - - - - - -
25/06:00pm 16.7 E 7 8 - - - - - - - - - -
25/05:30pm 16.6 E 5 7 - - - - - - - - - -
25/05:00pm 16.8 E 7 9 - - - - - - - - - -
25/04:30pm 17.2 E 12 15 - - - - - - - - - -
25/04:00pm 17.8 E 11 14 - - - - - - - - - -
25/03:30pm 18.2 SE 9 11 - - - - - - - - - -
25/03:00pm 18.0 ESE 9 12 - - - - - - - - - -
25/02:30pm 18.3 ESE 9 13 - - - - - - - - - -
25/02:00pm 18.4 ESE 8 9 - - - - - - - - - -
25/01:30pm 18.4 E 6 9 - - - - - - - - - -
25/01:00pm 18.2 E 6 8 - - - - - - - - - -
25/12:30pm 17.4 E 8 9 - - - - - - - - - -
25/12:00pm 17.7 E 6 8 - - - - - - - - - -
25/11:30am 18.3 CALM 0 2 - - - - - - - - - -
25/11:00am 16.4 SW 4 6 - - - - - - - - - -
25/10:30am 15.6 SW 8 9 - - - - - - - - - -
25/10:00am 15.1 SW 7 8 - - - - - - - - - -
25/09:30am 14.1 SW 7 8 - - - - - - - - - -
25/09:00am 13.5 SW 6 7 - - - - - - - - - -
25/08:30am 13.0 SW 6 7 - - - - - - - - - -
25/08:00am 12.6 SW 7 8 - - - - - - - - - -
25/07:30am 12.5 SW 7 8 - - - - - - - - - -
25/07:00am 12.4 SW 6 7 - - - - - - - - - -
25/06:30am 12.5 WSW 5 8 - - - - - - - - - -
25/06:00am 12.3 SW 5 7 - - - - - - - - - -
25/05:30am 12.2 SW 7 9 - - - - - - - - - -
25/05:00am 12.3 WSW 7 8 - - - - - - - - - -
25/04:30am 12.7 SW 6 8 - - - - - - - - - -
25/04:00am 13.1 WSW 4 5 - - - - - - - - - -
25/03:30am 13.3 CALM 0 2 - - - - - - - - - -
25/03:00am 13.4 WSW 3 4 - - - - - - - - - -
25/02:30am 13.6 WSW 4 5 - - - - - - - - - -
25/02:00am 13.3 WSW 4 6 - - - - - - - - - -
25/01:30am 13.8 CALM 0 0 - - - - - - - - - -
25/01:00am 14.1 CALM 0 0 - - - - - - - - - -
25/12:30am 14.4 WSW 5 5 - - - - - - - - - -
25/12:00am 14.1 WSW 5 6 - - - - - - - - - -
 
Date/Time
EST
Temp

°C
Wind Pressure Rain
since 9am
mm
Weather Cloud Vis
km
Sea
Height
m
Swell
Dir
 
Speed
knots
Gust
knots
hPa Trend Height
m
Period
s
Dir
24/11:30pm 14.3 WSW 4 6 - - - - - - - - - -
24/11:00pm 14.3 NNW 4 6 - - - - - - - - - -
24/10:30pm 14.3 CALM 0 0 - - - - - - - - - -
24/10:00pm 14.9 N 3 4 - - - - - - - - - -
24/09:30pm 15.4 N 1 3 - - - - - - - - - -
24/09:00pm 15.7 N 5 6 - - - - - - - - - -

Other Formats:

Comma delimited format used in spreadsheet applications
http://www.bom.gov.au/fwo/IDN60701/IDN60701.95766.axf

JavaScript Object Notation format (JSON) in row-major order
http://www.bom.gov.au/fwo/IDN60701/IDN60701.95766.json